createdAt,value
2019-03-10T00:01:31.794Z,5.69
2019-03-10T00:03:58.818Z,5.69
2019-03-10T00:06:25.801Z,5.62
2019-03-10T00:08:52.832Z,5.50
2019-03-10T00:11:19.797Z,5.62
2019-03-10T00:13:46.780Z,5.75
2019-03-10T00:16:13.777Z,5.69
2019-03-10T00:18:40.800Z,5.62
2019-03-10T00:21:07.863Z,5.69
2019-03-10T00:23:40.923Z,5.37
2019-03-10T00:26:08.725Z,5.37
2019-03-10T00:28:35.707Z,5.69
2019-03-10T00:31:02.741Z,5.50
2019-03-10T00:33:30.249Z,5.56
2019-03-10T00:35:57.227Z,5.44
2019-03-10T00:38:24.207Z,5.44
2019-03-10T00:41:25.450Z,5.69
2019-03-10T00:44:35.420Z,5.44
2019-03-10T00:47:14.484Z,5.37
2019-03-10T00:50:04.588Z,5.37
2019-03-10T00:52:37.396Z,5.56
2019-03-10T00:55:04.416Z,5.50
2019-03-10T00:57:31.408Z,5.50
2019-03-10T01:00:00.625Z,5.37
2019-03-10T01:02:25.961Z,5.62
2019-03-10T01:04:52.959Z,5.50
2019-03-10T01:07:19.995Z,5.56
2019-03-10T01:09:47.003Z,5.31
2019-03-10T01:12:13.993Z,5.31
2019-03-10T01:14:40.971Z,5.31
2019-03-10T01:17:07.997Z,5.50
2019-03-10T01:19:35.967Z,5.37
2019-03-10T01:22:03.065Z,5.50
2019-03-10T01:24:29.986Z,5.44
2019-03-10T01:26:56.966Z,5.31
2019-03-10T01:29:23.964Z,5.19
2019-03-10T01:32:01.252Z,5.31
2019-03-10T01:35:37.500Z,5.31
2019-03-10T01:38:04.476Z,5.44
2019-03-10T01:40:31.474Z,5.44
2019-03-10T01:42:58.472Z,5.31
2019-03-10T01:45:25.478Z,5.12
2019-03-10T01:47:52.464Z,5.25
2019-03-10T01:50:19.430Z,5.25
2019-03-10T01:52:46.386Z,5.50
2019-03-10T01:55:13.406Z,5.50
2019-03-10T01:57:40.415Z,5.69
2019-03-10T02:00:09.638Z,5.62
2019-03-10T02:02:36.653Z,5.44
2019-03-10T02:05:03.871Z,5.50
2019-03-10T02:07:30.819Z,5.37
2019-03-10T02:09:57.808Z,5.31
2019-03-10T02:12:24.889Z,5.50
2019-03-10T02:14:51.997Z,5.44
2019-03-10T02:17:18.958Z,5.75
2019-03-10T02:19:46.071Z,5.25
2019-03-10T02:22:13.035Z,5.56
2019-03-10T02:24:40.078Z,5.50
2019-03-10T02:27:07.064Z,5.37
2019-03-10T02:29:34.028Z,5.44
2019-03-10T02:32:01.030Z,5.50
2019-03-10T02:34:28.021Z,5.44
2019-03-10T02:36:55.049Z,5.44
2019-03-10T02:39:22.025Z,5.69
2019-03-10T02:41:49.086Z,5.62
2019-03-10T02:44:16.062Z,5.44
2019-03-10T02:46:43.033Z,5.50
2019-03-10T02:49:09.985Z,5.25
2019-03-10T02:51:37.029Z,5.62
2019-03-10T02:54:04.105Z,5.25
2019-03-10T02:56:31.116Z,5.56
2019-03-10T02:58:58.085Z,5.56
2019-03-10T03:01:25.030Z,5.44
2019-03-10T03:03:52.022Z,5.44
2019-03-10T03:06:19.055Z,5.44
2019-03-10T03:08:46.026Z,5.62
2019-03-10T03:11:12.993Z,5.50
2019-03-10T03:13:40.037Z,5.62
2019-03-10T03:16:07.036Z,5.56
2019-03-10T03:18:33.993Z,5.19
2019-03-10T03:21:01.005Z,5.25
2019-03-10T03:23:27.975Z,5.25
2019-03-10T03:25:54.977Z,5.31
2019-03-10T03:28:21.937Z,5.31
2019-03-10T03:30:48.934Z,5.50
2019-03-10T03:33:15.934Z,5.50
2019-03-10T03:35:47.554Z,5.12
2019-03-10T03:38:17.051Z,5.50
2019-03-10T03:40:46.638Z,5.50
2019-03-10T03:43:13.672Z,5.62
2019-03-10T03:45:40.647Z,5.50
2019-03-10T03:48:07.626Z,5.31
2019-03-10T03:50:34.627Z,5.31
2019-03-10T03:53:01.564Z,5.56
2019-03-10T03:55:28.516Z,5.56
2019-03-10T03:57:55.514Z,5.37
2019-03-10T04:00:22.505Z,5.37
2019-03-10T04:02:49.483Z,5.62
2019-03-10T04:05:16.469Z,5.25
2019-03-10T04:07:43.490Z,5.37
2019-03-10T04:10:10.583Z,5.56
2019-03-10T04:12:37.581Z,5.25
2019-03-10T04:15:04.544Z,5.62
2019-03-10T04:17:31.457Z,5.50
2019-03-10T04:19:58.406Z,5.62
2019-03-10T04:22:25.445Z,5.75
2019-03-10T04:24:52.403Z,5.69
2019-03-10T04:27:19.338Z,5.50
2019-03-10T04:29:46.340Z,5.69
2019-03-10T04:32:13.332Z,5.44
2019-03-10T04:34:40.252Z,5.25
2019-03-10T04:37:07.212Z,5.44
2019-03-10T04:39:34.145Z,5.56
2019-03-10T04:42:01.064Z,5.62
2019-03-10T04:44:27.982Z,5.56
2019-03-10T04:46:54.909Z,5.62
2019-03-10T04:49:22.144Z,5.81
2019-03-10T04:51:49.122Z,5.94
2019-03-10T04:54:16.515Z,5.81
2019-03-10T04:57:16.797Z,5.81
2019-03-10T04:59:43.791Z,5.75
2019-03-10T05:02:10.789Z,5.69
2019-03-10T05:04:37.818Z,5.81
2019-03-10T05:07:04.805Z,5.94
2019-03-10T05:09:31.737Z,6.06
2019-03-10T05:11:59.627Z,5.87
2019-03-10T05:14:26.553Z,5.69
2019-03-10T05:16:53.513Z,5.62
2019-03-10T05:19:20.470Z,5.75
2019-03-10T05:21:47.386Z,5.94
2019-03-10T05:24:14.557Z,5.94
2019-03-10T05:26:41.506Z,5.87
2019-03-10T05:29:08.428Z,6.06
2019-03-10T05:31:35.360Z,5.94
2019-03-10T05:34:02.276Z,6.12
2019-03-10T05:36:29.350Z,5.94
2019-03-10T05:38:57.326Z,5.87
2019-03-10T05:41:24.306Z,6.06
2019-03-10T05:43:51.265Z,6.06
2019-03-10T05:46:18.233Z,6.00
2019-03-10T05:48:45.274Z,5.81
2019-03-10T05:51:12.208Z,5.87
2019-03-10T05:53:39.113Z,5.75
2019-03-10T05:56:06.093Z,6.06
2019-03-10T05:58:35.127Z,6.12
2019-03-10T06:00:59.990Z,6.19
2019-03-10T06:03:26.923Z,6.00
2019-03-10T06:05:53.858Z,6.00
2019-03-10T06:08:20.876Z,5.94
2019-03-10T06:10:48.154Z,6.25
2019-03-10T06:13:15.064Z,6.12
2019-03-10T06:15:42.006Z,6.31
2019-03-10T06:18:13.555Z,6.00
2019-03-10T06:20:35.924Z,5.94
2019-03-10T06:23:02.875Z,6.00
2019-03-10T06:25:29.807Z,5.81
2019-03-10T06:27:56.746Z,5.81
2019-03-10T06:30:23.711Z,6.12
2019-03-10T06:32:50.657Z,6.00
2019-03-10T06:35:17.587Z,6.06
2019-03-10T06:37:44.504Z,6.19
2019-03-10T06:40:11.437Z,6.19
2019-03-10T06:42:38.357Z,6.12
2019-03-10T06:45:05.398Z,6.06
2019-03-10T06:47:32.323Z,6.31
2019-03-10T06:49:59.279Z,6.12
2019-03-10T06:52:26.223Z,6.12
2019-03-10T06:54:53.158Z,6.25
2019-03-10T06:57:20.134Z,6.69
2019-03-10T06:59:49.872Z,6.62
2019-03-10T07:02:14.914Z,6.50
2019-03-10T07:04:41.834Z,6.44
2019-03-10T07:07:08.812Z,6.69
2019-03-10T07:09:35.768Z,6.69
2019-03-10T07:12:02.695Z,6.62
2019-03-10T07:14:29.661Z,6.75
2019-03-10T07:16:56.580Z,6.81
2019-03-10T07:19:23.498Z,7.19
2019-03-10T07:21:50.423Z,6.81
2019-03-10T07:24:17.329Z,7.19
2019-03-10T07:26:44.265Z,7.06
2019-03-10T07:29:16.905Z,7.12
2019-03-10T07:31:49.652Z,7.25
2019-03-10T07:34:22.050Z,7.06
2019-03-10T07:37:25.687Z,7.00
2019-03-10T07:40:12.327Z,7.00
2019-03-10T07:42:44.606Z,7.00
2019-03-10T07:45:20.139Z,7.00
2019-03-10T07:47:53.524Z,7.25
2019-03-10T07:50:27.936Z,7.44
2019-03-10T07:53:00.674Z,7.25
2019-03-10T07:55:32.248Z,7.06
2019-03-10T07:58:03.807Z,7.31
2019-03-10T08:00:52.516Z,7.31
2019-03-10T08:03:26.937Z,7.31
2019-03-10T08:07:00.222Z,7.69
2019-03-10T08:09:33.654Z,7.37
2019-03-10T08:12:07.038Z,7.31
2019-03-10T08:16:41.699Z,7.62
2019-03-10T08:19:13.245Z,7.81
2019-03-10T08:21:48.817Z,7.56
2019-03-10T08:24:26.228Z,7.62
2019-03-10T08:26:57.771Z,8.00
2019-03-10T08:29:30.187Z,7.62
2019-03-10T08:32:01.728Z,7.81
2019-03-10T08:34:35.241Z,7.87
2019-03-10T08:37:07.849Z,8.06
2019-03-10T08:39:39.384Z,8.06
2019-03-10T08:42:20.540Z,8.19
2019-03-10T08:44:51.274Z,8.13
2019-03-10T08:47:25.925Z,8.13
2019-03-10T08:49:58.719Z,7.87
2019-03-10T08:52:31.095Z,8.06
2019-03-10T08:55:02.823Z,8.06
2019-03-10T08:57:42.449Z,8.25
2019-03-10T09:00:22.047Z,8.13
2019-03-10T09:02:54.599Z,8.13
2019-03-10T09:06:00.182Z,8.50
2019-03-10T09:08:38.670Z,8.50
2019-03-10T09:11:17.291Z,8.25
2019-03-10T09:13:48.867Z,8.50
2019-03-10T09:16:21.505Z,8.63
2019-03-10T09:18:55.023Z,8.31
2019-03-10T09:21:26.622Z,8.44
2019-03-10T09:23:59.018Z,8.88
2019-03-10T09:26:35.636Z,8.75
2019-03-10T09:29:08.204Z,8.31
2019-03-10T09:31:41.678Z,8.81
2019-03-10T09:34:14.106Z,8.44
2019-03-10T09:37:17.666Z,8.56
2019-03-10T09:39:50.400Z,8.88
2019-03-10T09:42:22.035Z,8.94
2019-03-10T09:44:59.538Z,8.94
2019-03-10T09:47:46.549Z,9.06
2019-03-10T09:50:20.137Z,8.88
2019-03-10T09:52:55.631Z,9.06
2019-03-10T09:58:35.147Z,8.94
2019-03-10T10:02:08.370Z,9.00
2019-03-10T10:04:40.076Z,8.75
2019-03-10T10:07:16.554Z,9.25
2019-03-10T10:09:50.957Z,8.94
2019-03-10T10:12:23.385Z,9.25
2019-03-10T10:14:55.856Z,9.06
2019-03-10T10:17:28.582Z,9.06
2019-03-10T10:20:00.246Z,8.88
2019-03-10T10:22:34.603Z,9.13
2019-03-10T10:25:14.178Z,9.31
2019-03-10T10:27:47.793Z,9.06
2019-03-10T10:30:23.343Z,9.38
2019-03-10T10:32:55.975Z,9.06
2019-03-10T10:35:45.167Z,9.44
2019-03-10T10:38:19.223Z,9.44
2019-03-10T10:43:52.410Z,9.38
2019-03-10T10:46:25.624Z,8.81
2019-03-10T10:48:57.213Z,8.81
2019-03-10T10:51:30.368Z,9.56
2019-03-10T10:54:16.938Z,9.50
2019-03-10T10:56:49.498Z,9.31
2019-03-10T10:59:26.194Z,9.44
2019-03-10T11:02:14.834Z,9.44
2019-03-10T11:04:49.652Z,9.06
2019-03-10T11:07:40.654Z,9.06
2019-03-10T11:11:17.265Z,9.25
2019-03-10T11:13:49.950Z,8.94
2019-03-10T11:16:24.418Z,9.06
2019-03-10T11:18:56.926Z,9.56
2019-03-10T11:21:31.388Z,9.31
2019-03-10T11:24:03.447Z,9.25
2019-03-10T11:26:35.052Z,9.13
2019-03-10T11:29:11.670Z,8.63
2019-03-10T11:31:47.118Z,8.63
2019-03-10T11:34:19.481Z,8.25
2019-03-10T11:36:51.826Z,8.13
2019-03-10T11:39:24.852Z,8.25
2019-03-10T11:41:57.880Z,8.44
2019-03-10T11:45:05.724Z,8.31
2019-03-10T11:47:45.270Z,8.25
2019-03-10T11:50:25.413Z,8.19
2019-03-10T11:52:58.086Z,8.31
2019-03-10T11:55:31.481Z,8.50
2019-03-10T11:58:03.939Z,8.13
2019-03-10T12:00:36.581Z,8.44
2019-03-10T12:03:09.367Z,8.44
2019-03-10T12:05:40.937Z,8.50
2019-03-10T12:08:27.755Z,8.44
2019-03-10T12:10:54.727Z,8.56
2019-03-10T12:13:22.374Z,8.25
2019-03-10T12:15:50.149Z,8.06
2019-03-10T12:18:17.456Z,8.25
2019-03-10T12:20:44.419Z,8.25
2019-03-10T12:23:11.357Z,8.06
2019-03-10T12:25:38.918Z,8.06
2019-03-10T12:28:05.889Z,8.38
2019-03-10T12:30:32.835Z,8.38
2019-03-10T12:32:59.777Z,8.38
2019-03-10T12:35:34.483Z,8.25
2019-03-10T12:37:53.739Z,8.25
2019-03-10T12:40:20.758Z,8.06
2019-03-10T12:42:47.797Z,8.06
2019-03-10T12:45:14.937Z,8.31
2019-03-10T12:47:41.877Z,8.44
2019-03-10T12:50:09.520Z,8.44
2019-03-10T12:52:39.999Z,8.44
2019-03-10T12:55:08.295Z,8.38
2019-03-10T12:57:40.296Z,8.38
2019-03-10T13:00:13.340Z,8.25
2019-03-10T13:02:38.293Z,8.25
2019-03-10T13:05:07.423Z,8.00
2019-03-10T13:07:34.462Z,7.94
2019-03-10T13:10:01.537Z,7.94
2019-03-10T13:12:29.023Z,7.94
2019-03-10T13:14:59.759Z,7.94
2019-03-10T13:17:22.927Z,7.87
2019-03-10T13:19:49.862Z,7.75
2019-03-10T13:22:16.881Z,7.87
2019-03-10T13:24:43.778Z,7.87
2019-03-10T13:27:11.399Z,7.62
2019-03-10T13:29:38.352Z,7.50
2019-03-10T13:32:05.334Z,7.56
2019-03-10T13:34:34.723Z,7.37
2019-03-10T13:37:01.738Z,7.44
2019-03-10T13:39:28.662Z,7.50
2019-03-10T13:41:55.704Z,7.12
2019-03-10T13:44:24.672Z,7.12
2019-03-10T13:46:49.718Z,7.06
2019-03-10T13:49:16.891Z,7.19
2019-03-10T13:51:44.656Z,7.25
2019-03-10T13:54:11.732Z,6.94
2019-03-10T13:56:38.759Z,6.81
2019-03-10T13:59:05.720Z,7.00
2019-03-10T14:01:34.784Z,7.00
2019-03-10T14:04:01.735Z,6.94
2019-03-10T14:06:28.960Z,6.50
2019-03-10T14:08:55.880Z,7.00
2019-03-10T14:11:22.866Z,6.69
2019-03-10T14:13:49.859Z,6.75
2019-03-10T14:16:16.891Z,6.50
2019-03-10T14:18:43.891Z,6.62
2019-03-10T14:21:10.828Z,6.69
2019-03-10T14:23:37.763Z,6.56
2019-03-10T14:26:04.778Z,6.50
2019-03-10T14:28:31.764Z,6.62
2019-03-10T14:30:58.832Z,6.69
2019-03-10T14:33:25.848Z,6.19
2019-03-10T14:35:52.753Z,6.50
2019-03-10T14:38:19.822Z,6.56
2019-03-10T14:40:46.832Z,6.62
2019-03-10T14:43:13.976Z,6.37
2019-03-10T14:45:41.363Z,6.44
2019-03-10T14:48:08.415Z,6.50
2019-03-10T14:50:35.438Z,6.25
2019-03-10T14:53:04.728Z,6.12
2019-03-10T14:55:31.131Z,6.31
2019-03-10T14:57:58.678Z,6.19
2019-03-10T15:00:26.245Z,6.31
2019-03-10T15:02:53.203Z,6.44
2019-03-10T15:05:21.229Z,6.31
2019-03-10T15:07:48.552Z,6.44
2019-03-10T15:10:23.575Z,6.37
2019-03-10T15:12:50.567Z,6.25
2019-03-10T15:15:22.285Z,6.19
2019-03-10T15:17:46.604Z,6.31
2019-03-10T15:20:14.226Z,6.37
2019-03-10T15:22:41.678Z,6.31
2019-03-10T15:25:10.378Z,6.37
2019-03-10T15:27:37.392Z,6.50
2019-03-10T15:30:06.207Z,6.31
2019-03-10T15:32:33.384Z,6.75
2019-03-10T15:35:01.130Z,6.62
2019-03-10T15:37:28.495Z,6.44
2019-03-10T15:39:55.604Z,6.37
2019-03-10T15:42:23.457Z,6.37
2019-03-10T15:44:50.523Z,6.62
2019-03-10T15:47:17.549Z,6.87
2019-03-10T15:49:44.644Z,6.69
2019-03-10T15:52:11.825Z,6.69
2019-03-10T15:54:39.262Z,6.44
2019-03-10T15:57:06.231Z,6.44
2019-03-10T15:59:33.356Z,6.69
2019-03-10T16:02:00.813Z,6.37
2019-03-10T16:04:28.139Z,6.62
2019-03-10T16:06:55.099Z,6.31
2019-03-10T16:09:22.169Z,6.56
2019-03-10T16:11:50.206Z,6.37
2019-03-10T16:14:17.817Z,6.31
2019-03-10T16:16:45.672Z,6.19
2019-03-10T16:19:12.978Z,6.50
2019-03-10T16:21:40.844Z,6.19
2019-03-10T16:24:08.697Z,6.06
2019-03-10T16:26:35.701Z,6.12
2019-03-10T16:29:03.093Z,6.19
2019-03-10T16:31:30.404Z,6.00
2019-03-10T16:33:57.379Z,5.75
2019-03-10T16:36:24.331Z,5.94
2019-03-10T16:38:51.701Z,5.87
2019-03-10T16:41:19.844Z,5.87
2019-03-10T16:43:46.698Z,5.87
2019-03-10T16:46:13.695Z,5.62
2019-03-10T16:48:40.795Z,5.75
2019-03-10T16:51:08.339Z,5.81
2019-03-10T16:53:35.326Z,5.81
2019-03-10T16:56:03.434Z,5.81
2019-03-10T16:58:30.108Z,5.50
2019-03-10T17:00:57.242Z,5.69
2019-03-10T17:03:24.258Z,5.75
2019-03-10T17:05:51.276Z,5.81
2019-03-10T17:08:18.560Z,5.69
2019-03-10T17:10:45.918Z,5.62
2019-03-10T17:13:13.127Z,5.62
2019-03-10T17:15:40.151Z,5.56
2019-03-10T17:18:07.171Z,5.25
2019-03-10T17:20:34.790Z,5.37
2019-03-10T17:23:02.313Z,5.37
2019-03-10T17:25:29.627Z,5.37
2019-03-10T17:27:57.796Z,5.19
2019-03-10T17:30:24.900Z,5.12
2019-03-10T17:32:51.872Z,4.94
2019-03-10T17:35:20.389Z,5.37
2019-03-10T17:37:48.803Z,5.62
2019-03-10T17:40:15.774Z,5.25
2019-03-10T17:42:42.816Z,5.31
2019-03-10T17:45:10.395Z,4.87
2019-03-10T17:47:38.034Z,5.00
2019-03-10T17:50:05.462Z,5.00
2019-03-10T17:52:33.204Z,4.75
2019-03-10T17:55:00.575Z,4.75
2019-03-10T17:57:27.594Z,4.87
2019-03-10T17:59:54.706Z,5.19
2019-03-10T18:02:21.736Z,5.19
2019-03-10T18:04:48.675Z,5.37
2019-03-10T18:07:15.669Z,4.87
2019-03-10T18:09:42.638Z,5.12
2019-03-10T18:12:09.597Z,4.94
2019-03-10T18:14:36.555Z,4.81
2019-03-10T18:17:03.683Z,4.62
2019-03-10T18:19:31.015Z,4.69
2019-03-10T18:21:58.074Z,4.56
2019-03-10T18:24:25.025Z,4.56
2019-03-10T18:26:52.023Z,4.25
2019-03-10T18:29:19.984Z,4.37
2019-03-10T18:31:47.300Z,4.12
2019-03-10T18:34:15.115Z,4.37
2019-03-10T18:36:42.208Z,4.25
2019-03-10T18:39:09.410Z,4.06
2019-03-10T18:41:36.991Z,3.62
2019-03-10T18:44:04.236Z,3.37
2019-03-10T18:46:31.471Z,3.25
2019-03-10T18:48:59.122Z,3.25
2019-03-10T18:51:26.171Z,3.25
2019-03-10T18:53:53.177Z,3.12
2019-03-10T18:56:20.541Z,3.19
2019-03-10T18:58:47.619Z,3.19
2019-03-10T19:01:15.662Z,3.06
2019-03-10T19:03:43.742Z,3.00
2019-03-10T19:06:10.967Z,3.19
2019-03-10T19:08:38.391Z,3.12
2019-03-10T19:11:06.101Z,3.06
2019-03-10T19:13:33.510Z,2.87
2019-03-10T19:16:00.689Z,2.81
2019-03-10T19:18:28.083Z,2.81
2019-03-10T19:21:01.456Z,2.75
2019-03-10T19:23:28.712Z,2.56
2019-03-10T19:25:56.337Z,2.81
2019-03-10T19:28:24.643Z,2.69
2019-03-10T19:30:51.974Z,2.56
2019-03-10T19:33:18.959Z,2.37
2019-03-10T19:35:46.007Z,2.00
2019-03-10T19:38:12.987Z,2.12
2019-03-10T19:40:40.079Z,2.12
2019-03-10T19:43:07.999Z,1.94
2019-03-10T19:45:35.965Z,1.94
2019-03-10T19:48:03.569Z,2.00
2019-03-10T19:50:30.923Z,2.00
2019-03-10T19:52:57.953Z,1.87
2019-03-10T19:55:24.990Z,2.00
2019-03-10T19:57:51.970Z,1.81
2019-03-10T20:00:19.010Z,1.81
2019-03-10T20:02:45.983Z,1.94
2019-03-10T20:05:14.121Z,2.06
2019-03-10T20:07:41.193Z,1.87
2019-03-10T20:12:43.636Z,1.81
2019-03-10T20:15:12.630Z,1.94
2019-03-10T20:17:39.593Z,1.81
2019-03-10T20:20:08.553Z,1.81
2019-03-10T20:22:35.656Z,1.69
2019-03-10T20:25:02.826Z,1.75
2019-03-10T20:27:30.017Z,1.81
2019-03-10T20:29:57.225Z,1.75
2019-03-10T20:32:24.975Z,1.94
2019-03-10T20:34:52.178Z,2.12
2019-03-10T20:37:19.165Z,2.19
2019-03-10T20:39:46.159Z,1.87
2019-03-10T20:42:13.222Z,1.81
2019-03-10T20:44:40.358Z,2.00
2019-03-10T20:47:07.404Z,1.94
2019-03-10T20:49:35.068Z,1.81
2019-03-10T20:52:02.266Z,1.81
2019-03-10T20:54:29.259Z,2.00
2019-03-10T20:56:56.242Z,2.00
2019-03-10T20:59:23.188Z,1.94
2019-03-10T21:01:50.326Z,2.12
2019-03-10T21:04:17.267Z,2.37
2019-03-10T21:06:44.227Z,2.12
2019-03-10T21:14:07.499Z,2.37
2019-03-10T21:16:34.596Z,2.25
2019-03-10T21:19:01.674Z,2.37
2019-03-10T21:21:28.636Z,2.37
2019-03-10T21:23:55.596Z,2.19
2019-03-10T21:26:22.538Z,2.44
2019-03-10T21:28:49.574Z,2.44
2019-03-10T21:31:16.535Z,2.50
2019-03-10T21:33:43.487Z,2.62
2019-03-10T21:36:10.445Z,2.62
2019-03-10T21:38:37.389Z,2.44
2019-03-10T21:41:13.762Z,2.50
2019-03-10T21:43:31.399Z,2.62
2019-03-10T21:45:58.993Z,2.62
2019-03-10T21:48:25.905Z,2.69
2019-03-10T21:50:53.005Z,2.75
2019-03-10T21:53:19.988Z,2.69
2019-03-10T21:55:46.927Z,2.81
2019-03-10T21:58:13.838Z,3.00
2019-03-10T22:00:40.823Z,2.94
2019-03-10T22:03:07.756Z,2.94
2019-03-10T22:05:34.707Z,3.06
2019-03-10T22:08:01.625Z,3.12
2019-03-10T22:10:28.686Z,3.06
2019-03-10T22:12:55.592Z,3.12
2019-03-10T22:15:22.541Z,3.12
2019-03-10T22:17:49.526Z,3.12
2019-03-10T22:20:16.561Z,3.12
2019-03-10T22:22:48.955Z,3.25
2019-03-10T22:25:12.975Z,3.19
2019-03-10T22:27:37.571Z,3.25
2019-03-10T22:30:04.710Z,3.12
2019-03-10T22:32:31.633Z,3.31
2019-03-10T22:34:58.567Z,3.31
2019-03-10T22:37:25.495Z,3.37
2019-03-10T22:39:52.418Z,3.44
2019-03-10T22:42:19.347Z,3.37
2019-03-10T22:44:46.708Z,3.62
2019-03-10T22:47:13.299Z,3.69
2019-03-10T22:49:40.262Z,3.44
2019-03-10T22:52:07.193Z,3.56
2019-03-10T22:54:34.169Z,3.56
2019-03-10T22:57:01.175Z,3.69
2019-03-10T22:59:28.116Z,3.44
2019-03-10T23:01:55.117Z,3.69
2019-03-10T23:04:22.072Z,3.50
2019-03-10T23:06:49.078Z,3.62
2019-03-10T23:09:16.154Z,3.56
2019-03-10T23:11:43.102Z,3.62
2019-03-10T23:14:10.021Z,3.56
2019-03-10T23:16:36.968Z,3.56
2019-03-10T23:19:03.980Z,3.44
2019-03-10T23:21:30.912Z,3.75
2019-03-10T23:23:57.898Z,3.62
2019-03-10T23:26:24.893Z,3.69
2019-03-10T23:28:51.814Z,3.75
2019-03-10T23:31:18.769Z,3.81
2019-03-10T23:33:45.732Z,3.75
2019-03-10T23:36:12.679Z,3.94
2019-03-10T23:38:39.639Z,3.75
2019-03-10T23:41:06.555Z,3.75
2019-03-10T23:43:33.569Z,3.87
2019-03-10T23:46:00.501Z,3.94
2019-03-10T23:48:27.444Z,3.81
2019-03-10T23:50:54.450Z,3.62
2019-03-10T23:53:21.430Z,4.00
2019-03-10T23:55:48.393Z,3.94
2019-03-10T23:58:15.350Z,3.69
